sensor_id;sensor_type;location;lat;lon;timestamp;pressure;altitude;pressure_sealevel;temperature;humidity
34034;BME280;63481;52.588;22.472;2023-04-08T00:00:27;100906.91;;;-0.38;98.72
34034;BME280;63481;52.588;22.472;2023-04-08T00:01:24;100905.86;;;-0.33;98.66
34034;BME280;63481;52.588;22.472;2023-04-08T00:02:18;100909.08;;;-0.30;98.69
34034;BME280;63481;52.588;22.472;2023-04-08T00:03:12;100909.55;;;-0.27;98.72
34034;BME280;63481;52.588;22.472;2023-04-08T00:04:05;100905.95;;;-0.30;98.64
34034;BME280;63481;52.588;22.472;2023-04-08T00:05:01;100908.15;;;-0.27;98.80
34034;BME280;63481;52.588;22.472;2023-04-08T00:05:55;100907.23;;;-0.22;98.77
34034;BME280;63481;52.588;22.472;2023-04-08T00:06:48;100911.14;;;-0.20;98.85
34034;BME280;63481;52.588;22.472;2023-04-08T00:07:41;100909.64;;;-0.23;98.91
34034;BME280;63481;52.588;22.472;2023-04-08T00:08:34;100909.15;;;-0.22;98.80
34034;BME280;63481;52.588;22.472;2023-04-08T00:09:28;100910.17;;;-0.19;98.80
34034;BME280;63481;52.588;22.472;2023-04-08T00:10:21;100910.38;;;-0.17;98.69
34034;BME280;63481;52.588;22.472;2023-04-08T00:11:14;100911.05;;;-0.21;98.86
34034;BME280;63481;52.588;22.472;2023-04-08T00:12:08;100913.48;;;-0.24;98.73
34034;BME280;63481;52.588;22.472;2023-04-08T00:13:01;100912.19;;;-0.23;98.78
34034;BME280;63481;52.588;22.472;2023-04-08T00:13:55;100913.55;;;-0.22;98.77
34034;BME280;63481;52.588;22.472;2023-04-08T00:14:48;100913.48;;;-0.23;98.82
34034;BME280;63481;52.588;22.472;2023-04-08T00:15:42;100914.52;;;-0.26;98.97
34034;BME280;63481;52.588;22.472;2023-04-08T00:16:35;100912.48;;;-0.29;98.98
34034;BME280;63481;52.588;22.472;2023-04-08T00:17:28;100911.10;;;-0.31;98.96
34034;BME280;63481;52.588;22.472;2023-04-08T00:18:22;100911.49;;;-0.36;98.83
34034;BME280;63481;52.588;22.472;2023-04-08T00:19:15;100912.18;;;-0.40;98.99
34034;BME280;63481;52.588;22.472;2023-04-08T00:20:09;100910.75;;;-0.44;98.90
34034;BME280;63481;52.588;22.472;2023-04-08T00:21:03;100908.33;;;-0.46;98.78
34034;BME280;63481;52.588;22.472;2023-04-08T00:21:55;100908.44;;;-0.48;98.95
34034;BME280;63481;52.588;22.472;2023-04-08T00:22:48;100907.04;;;-0.48;98.82
34034;BME280;63481;52.588;22.472;2023-04-08T00:23:41;100906.59;;;-0.49;98.90
34034;BME280;63481;52.588;22.472;2023-04-08T00:24:35;100906.52;;;-0.52;99.03
34034;BME280;63481;52.588;22.472;2023-04-08T00:25:29;100908.38;;;-0.53;99.11
34034;BME280;63481;52.588;22.472;2023-04-08T00:26:22;100908.50;;;-0.55;99.05
34034;BME280;63481;52.588;22.472;2023-04-08T00:27:16;100910.77;;;-0.55;99.15
34034;BME280;63481;52.588;22.472;2023-04-08T00:28:10;100910.61;;;-0.53;99.17
34034;BME280;63481;52.588;22.472;2023-04-08T00:29:03;100911.60;;;-0.50;99.29
34034;BME280;63481;52.588;22.472;2023-04-08T00:29:57;100913.47;;;-0.52;99.39
34034;BME280;63481;52.588;22.472;2023-04-08T00:30:52;100911.95;;;-0.54;99.51
34034;BME280;63481;52.588;22.472;2023-04-08T00:31:45;100913.07;;;-0.55;99.62
34034;BME280;63481;52.588;22.472;2023-04-08T00:32:39;100911.08;;;-0.55;99.67
34034;BME280;63481;52.588;22.472;2023-04-08T00:33:32;100916.14;;;-0.57;99.71
34034;BME280;63481;52.588;22.472;2023-04-08T00:34:26;100913.58;;;-0.58;99.66
34034;BME280;63481;52.588;22.472;2023-04-08T00:35:20;100913.52;;;-0.55;99.75
34034;BME280;63481;52.588;22.472;2023-04-08T00:36:13;100913.48;;;-0.57;99.72
34034;BME280;63481;52.588;22.472;2023-04-08T00:37:06;100910.30;;;-0.58;99.75
34034;BME280;63481;52.588;22.472;2023-04-08T00:38:00;100909.48;;;-0.62;99.79
34034;BME280;63481;52.588;22.472;2023-04-08T00:38:53;100912.64;;;-0.64;99.74
34034;BME280;63481;52.588;22.472;2023-04-08T00:39:47;100908.38;;;-0.61;99.67
34034;BME280;63481;52.588;22.472;2023-04-08T00:40:41;100911.46;;;-0.57;99.65
34034;BME280;63481;52.588;22.472;2023-04-08T00:41:34;100909.64;;;-0.52;99.91
34034;BME280;63481;52.588;22.472;2023-04-08T00:42:29;100909.05;;;-0.49;99.70
34034;BME280;63481;52.588;22.472;2023-04-08T00:43:23;100905.89;;;-0.49;99.84
34034;BME280;63481;52.588;22.472;2023-04-08T00:44:16;100904.79;;;-0.50;99.86
34034;BME280;63481;52.588;22.472;2023-04-08T00:45:09;100904.66;;;-0.53;99.99
34034;BME280;63481;52.588;22.472;2023-04-08T00:46:03;100905.42;;;-0.54;99.95
34034;BME280;63481;52.588;22.472;2023-04-08T00:46:56;100907.41;;;-0.55;99.94
34034;BME280;63481;52.588;22.472;2023-04-08T00:47:50;100906.98;;;-0.56;99.95
34034;BME280;63481;52.588;22.472;2023-04-08T00:48:45;100908.48;;;-0.59;99.97
34034;BME280;63481;52.588;22.472;2023-04-08T00:49:38;100910.19;;;-0.64;99.96
34034;BME280;63481;52.588;22.472;2023-04-08T00:50:31;100908.61;;;-0.68;99.93
34034;BME280;63481;52.588;22.472;2023-04-08T00:51:24;100908.91;;;-0.70;99.97
34034;BME280;63481;52.588;22.472;2023-04-08T00:52:18;100908.80;;;-0.73;100.00
34034;BME280;63481;52.588;22.472;2023-04-08T00:53:16;100909.17;;;-0.75;99.96
34034;BME280;63481;52.588;22.472;2023-04-08T00:54:09;100910.02;;;-0.79;99.95
34034;BME280;63481;52.588;22.472;2023-04-08T00:55:03;100911.33;;;-0.81;99.93
34034;BME280;63481;52.588;22.472;2023-04-08T00:55:57;100912.66;;;-0.80;99.95
34034;BME280;63481;52.588;22.472;2023-04-08T00:56:53;100913.80;;;-0.79;99.93
34034;BME280;63481;52.588;22.472;2023-04-08T00:57:47;100914.02;;;-0.77;99.96
34034;BME280;63481;52.588;22.472;2023-04-08T00:58:41;100914.18;;;-0.72;99.99
34034;BME280;63481;52.588;22.472;2023-04-08T00:59:34;100918.41;;;-0.66;99.99
34034;BME280;63481;52.588;22.472;2023-04-08T01:00:30;100918.96;;;-0.60;100.00
34034;BME280;63481;52.588;22.472;2023-04-08T01:02:50;100919.15;;;-0.57;100.00
34034;BME280;63481;52.588;22.472;2023-04-08T01:04:06;100921.27;;;-0.60;100.00
34034;BME280;63481;52.588;22.472;2023-04-08T01:05:06;100919.44;;;-0.66;99.88
34034;BME280;63481;52.588;22.472;2023-04-08T01:06:53;100919.36;;;-0.69;99.91
34034;BME280;63481;52.588;22.472;2023-04-08T01:07:24;100921.05;;;-0.71;99.96
34034;BME280;63481;52.588;22.472;2023-04-08T01:08:18;100923.00;;;-0.69;99.99
34034;BME280;63481;52.588;22.472;2023-04-08T01:09:12;100920.52;;;-0.66;99.99
34034;BME280;63481;52.588;22.472;2023-04-08T01:10:21;100924.14;;;-0.66;99.91
34034;BME280;63481;52.588;22.472;2023-04-08T01:11:14;100924.11;;;-0.65;99.82
34034;BME280;63481;52.588;22.472;2023-04-08T01:12:09;100923.86;;;-0.64;99.89
34034;BME280;63481;52.588;22.472;2023-04-08T01:13:07;100923.45;;;-0.64;99.94
34034;BME280;63481;52.588;22.472;2023-04-08T01:14:04;100923.05;;;-0.60;99.96
34034;BME280;63481;52.588;22.472;2023-04-08T01:15:03;100921.08;;;-0.58;100.00
34034;BME280;63481;52.588;22.472;2023-04-08T01:15:57;100924.55;;;-0.53;100.00
34034;BME280;63481;52.588;22.472;2023-04-08T01:16:54;100927.17;;;-0.55;99.93
34034;BME280;63481;52.588;22.472;2023-04-08T01:17:52;100925.48;;;-0.51;99.89
34034;BME280;63481;52.588;22.472;2023-04-08T01:18:46;100927.80;;;-0.50;99.95
34034;BME280;63481;52.588;22.472;2023-04-08T01:19:40;100927.76;;;-0.54;99.94
34034;BME280;63481;52.588;22.472;2023-04-08T01:20:38;100927.60;;;-0.59;99.92
34034;BME280;63481;52.588;22.472;2023-04-08T01:21:31;100930.96;;;-0.64;99.97
34034;BME280;63481;52.588;22.472;2023-04-08T01:22:32;100931.35;;;-0.68;99.95
34034;BME280;63481;52.588;22.472;2023-04-08T01:24:44;100933.23;;;-0.73;99.93
34034;BME280;63481;52.588;22.472;2023-04-08T01:26:32;100932.58;;;-0.75;99.96
34034;BME280;63481;52.588;22.472;2023-04-08T01:27:26;100934.15;;;-0.69;100.00
34034;BME280;63481;52.588;22.472;2023-04-08T01:28:22;100931.71;;;-0.60;100.00
34034;BME280;63481;52.588;22.472;2023-04-08T01:29:16;100935.42;;;-0.63;100.00
34034;BME280;63481;52.588;22.472;2023-04-08T01:30:11;100934.78;;;-0.63;100.00
34034;BME280;63481;52.588;22.472;2023-04-08T01:31:06;100934.63;;;-0.64;99.98
34034;BME280;63481;52.588;22.472;2023-04-08T01:31:59;100935.19;;;-0.60;100.00
34034;BME280;63481;52.588;22.472;2023-04-08T01:32:54;100939.65;;;-0.58;100.00
34034;BME280;63481;52.588;22.472;2023-04-08T01:33:48;100937.50;;;-0.55;100.00
34034;BME280;63481;52.588;22.472;2023-04-08T01:34:43;100938.21;;;-0.56;100.00
34034;BME280;63481;52.588;22.472;2023-04-08T01:35:36;100939.11;;;-0.54;100.00
34034;BME280;63481;52.588;22.472;2023-04-08T01:36:31;100940.77;;;-0.60;100.00
34034;BME280;63481;52.588;22.472;2023-04-08T01:37:25;100942.48;;;-0.61;100.00
34034;BME280;63481;52.588;22.472;2023-04-08T01:38:20;100945.13;;;-0.66;100.00
34034;BME280;63481;52.588;22.472;2023-04-08T01:39:15;100948.98;;;-0.71;100.00
34034;BME280;63481;52.588;22.472;2023-04-08T01:40:11;100944.61;;;-0.64;100.00
34034;BME280;63481;52.588;22.472;2023-04-08T01:41:04;100944.68;;;-0.63;100.00
34034;BME280;63481;52.588;22.472;2023-04-08T01:41:59;100942.27;;;-0.66;100.00
34034;BME280;63481;52.588;22.472;2023-04-08T01:42:55;100944.19;;;-0.58;100.00
34034;BME280;63481;52.588;22.472;2023-04-08T01:43:49;100943.16;;;-0.52;100.00
34034;BME280;63481;52.588;22.472;2023-04-08T01:44:44;100941.90;;;-0.56;100.00
34034;BME280;63481;52.588;22.472;2023-04-08T01:45:37;100943.36;;;-0.64;100.00
34034;BME280;63481;52.588;22.472;2023-04-08T01:46:31;100945.55;;;-0.72;100.00
34034;BME280;63481;52.588;22.472;2023-04-08T01:47:26;100945.84;;;-0.69;100.00
34034;BME280;63481;52.588;22.472;2023-04-08T01:48:20;100946.55;;;-0.64;100.00
34034;BME280;63481;52.588;22.472;2023-04-08T01:49:14;100943.87;;;-0.61;100.00
34034;BME280;63481;52.588;22.472;2023-04-08T01:50:08;100947.40;;;-0.64;100.00
34034;BME280;63481;52.588;22.472;2023-04-08T01:51:02;100946.89;;;-0.68;100.00
34034;BME280;63481;52.588;22.472;2023-04-08T01:51:57;100953.52;;;-0.71;100.00
34034;BME280;63481;52.588;22.472;2023-04-08T01:52:50;100950.44;;;-0.70;99.99
34034;BME280;63481;52.588;22.472;2023-04-08T01:53:45;100955.32;;;-0.69;100.00
34034;BME280;63481;52.588;22.472;2023-04-08T01:54:38;100956.02;;;-0.71;100.00
34034;BME280;63481;52.588;22.472;2023-04-08T01:55:31;100954.79;;;-0.76;100.00
34034;BME280;63481;52.588;22.472;2023-04-08T01:56:26;100956.70;;;-0.83;99.99
34034;BME280;63481;52.588;22.472;2023-04-08T01:57:25;100955.00;;;-0.88;100.00
34034;BME280;63481;52.588;22.472;2023-04-08T01:58:20;100955.00;;;-0.83;100.00
34034;BME280;63481;52.588;22.472;2023-04-08T01:59:15;100956.20;;;-0.78;100.00
34034;BME280;63481;52.588;22.472;2023-04-08T02:00:09;100954.36;;;-0.75;100.00
34034;BME280;63481;52.588;22.472;2023-04-08T02:01:16;100955.77;;;-0.68;100.00
34034;BME280;63481;52.588;22.472;2023-04-08T02:02:09;100957.40;;;-0.76;99.99
34034;BME280;63481;52.588;22.472;2023-04-08T02:03:05;100956.16;;;-0.80;100.00
34034;BME280;63481;52.588;22.472;2023-04-08T02:03:59;100961.35;;;-0.79;100.00
34034;BME280;63481;52.588;22.472;2023-04-08T02:04:54;100959.83;;;-0.74;100.00
34034;BME280;63481;52.588;22.472;2023-04-08T02:05:46;100962.88;;;-0.74;100.00
34034;BME280;63481;52.588;22.472;2023-04-08T02:06:39;100962.04;;;-0.73;100.00
34034;BME280;63481;52.588;22.472;2023-04-08T02:07:32;100964.59;;;-0.70;100.00
34034;BME280;63481;52.588;22.472;2023-04-08T02:08:25;100962.88;;;-0.70;100.00
34034;BME280;63481;52.588;22.472;2023-04-08T02:09:19;100965.80;;;-0.72;100.00
34034;BME280;63481;52.588;22.472;2023-04-08T02:10:12;100967.69;;;-0.69;100.00
34034;BME280;63481;52.588;22.472;2023-04-08T02:11:04;100970.05;;;-0.68;100.00
34034;BME280;63481;52.588;22.472;2023-04-08T02:11:57;100966.46;;;-0.67;100.00
34034;BME280;63481;52.588;22.472;2023-04-08T02:12:50;100968.42;;;-0.63;100.00
34034;BME280;63481;52.588;22.472;2023-04-08T02:13:43;100964.52;;;-0.57;100.00
34034;BME280;63481;52.588;22.472;2023-04-08T02:14:36;100965.52;;;-0.56;100.00
34034;BME280;63481;52.588;22.472;2023-04-08T02:15:33;100965.61;;;-0.53;100.00
34034;BME280;63481;52.588;22.472;2023-04-08T02:16:30;100970.27;;;-0.59;100.00
34034;BME280;63481;52.588;22.472;2023-04-08T02:18:31;100968.56;;;-0.71;100.00
34034;BME280;63481;52.588;22.472;2023-04-08T02:19:32;100970.70;;;-0.78;100.00
34034;BME280;63481;52.588;22.472;2023-04-08T02:20:56;100971.52;;;-0.87;100.00
34034;BME280;63481;52.588;22.472;2023-04-08T02:22:11;100970.88;;;-0.87;100.00
34034;BME280;63481;52.588;22.472;2023-04-08T02:24:07;100973.35;;;-0.95;100.00
34034;BME280;63481;52.588;22.472;2023-04-08T02:25:03;100973.83;;;-0.96;100.00
34034;BME280;63481;52.588;22.472;2023-04-08T02:25:56;100973.70;;;-1.02;100.00
34034;BME280;63481;52.588;22.472;2023-04-08T02:26:53;100974.13;;;-1.10;100.00
34034;BME280;63481;52.588;22.472;2023-04-08T02:27:53;100978.27;;;-1.11;100.00
34034;BME280;63481;52.588;22.472;2023-04-08T02:28:48;100982.31;;;-1.14;100.00
34034;BME280;63481;52.588;22.472;2023-04-08T02:29:41;100982.08;;;-1.16;100.00
34034;BME280;63481;52.588;22.472;2023-04-08T02:30:40;100984.92;;;-1.21;100.00
34034;BME280;63481;52.588;22.472;2023-04-08T02:31:34;100986.30;;;-1.28;100.00
34034;BME280;63481;52.588;22.472;2023-04-08T02:32:28;100984.96;;;-1.31;100.00
34034;BME280;63481;52.588;22.472;2023-04-08T02:33:23;100985.42;;;-1.35;100.00
34034;BME280;63481;52.588;22.472;2023-04-08T02:34:19;100983.63;;;-1.34;100.00
34034;BME280;63481;52.588;22.472;2023-04-08T02:35:14;100984.02;;;-1.28;100.00
34034;BME280;63481;52.588;22.472;2023-04-08T02:36:09;100984.45;;;-1.29;100.00
34034;BME280;63481;52.588;22.472;2023-04-08T02:37:03;100982.66;;;-1.28;100.00
34034;BME280;63481;52.588;22.472;2023-04-08T02:37:56;100981.75;;;-1.25;100.00
34034;BME280;63481;52.588;22.472;2023-04-08T02:38:49;100984.27;;;-1.22;100.00
34034;BME280;63481;52.588;22.472;2023-04-08T02:39:43;100989.81;;;-1.22;100.00
34034;BME280;63481;52.588;22.472;2023-04-08T02:40:36;100986.63;;;-1.18;100.00
34034;BME280;63481;52.588;22.472;2023-04-08T02:41:30;100989.57;;;-1.20;100.00
34034;BME280;63481;52.588;22.472;2023-04-08T02:42:23;100991.52;;;-1.21;100.00
34034;BME280;63481;52.588;22.472;2023-04-08T02:43:18;100989.63;;;-1.19;100.00
34034;BME280;63481;52.588;22.472;2023-04-08T02:44:11;100995.36;;;-1.16;100.00
34034;BME280;63481;52.588;22.472;2023-04-08T02:45:07;100993.51;;;-1.12;100.00
34034;BME280;63481;52.588;22.472;2023-04-08T02:46:00;100992.65;;;-1.03;100.00
34034;BME280;63481;52.588;22.472;2023-04-08T02:46:55;100991.35;;;-0.97;100.00
34034;BME280;63481;52.588;22.472;2023-04-08T02:47:48;100992.77;;;-0.93;100.00
34034;BME280;63481;52.588;22.472;2023-04-08T02:48:41;100993.64;;;-0.91;100.00
34034;BME280;63481;52.588;22.472;2023-04-08T02:49:35;100991.53;;;-0.88;100.00
34034;BME280;63481;52.588;22.472;2023-04-08T02:50:28;100993.48;;;-0.89;100.00
34034;BME280;63481;52.588;22.472;2023-04-08T02:51:22;100997.48;;;-0.95;100.00
34034;BME280;63481;52.588;22.472;2023-04-08T02:52:15;100997.61;;;-0.97;100.00
34034;BME280;63481;52.588;22.472;2023-04-08T02:53:09;100997.89;;;-0.96;100.00
34034;BME280;63481;52.588;22.472;2023-04-08T02:54:02;101000.80;;;-0.98;100.00
34034;BME280;63481;52.588;22.472;2023-04-08T02:54:55;101000.98;;;-1.00;100.00
34034;BME280;63481;52.588;22.472;2023-04-08T02:55:48;101001.66;;;-1.07;100.00
34034;BME280;63481;52.588;22.472;2023-04-08T02:56:41;101003.84;;;-1.13;100.00
34034;BME280;63481;52.588;22.472;2023-04-08T02:57:35;101003.45;;;-1.17;100.00
34034;BME280;63481;52.588;22.472;2023-04-08T02:58:29;101003.51;;;-1.20;100.00
34034;BME280;63481;52.588;22.472;2023-04-08T02:59:22;101002.45;;;-1.17;100.00
34034;BME280;63481;52.588;22.472;2023-04-08T03:00:16;101002.98;;;-1.17;100.00
34034;BME280;63481;52.588;22.472;2023-04-08T03:01:10;100998.72;;;-1.16;100.00
34034;BME280;63481;52.588;22.472;2023-04-08T03:02:03;101001.26;;;-1.18;100.00
34034;BME280;63481;52.588;22.472;2023-04-08T03:02:57;100998.14;;;-1.13;100.00
34034;BME280;63481;52.588;22.472;2023-04-08T03:03:50;101002.03;;;-1.11;100.00
34034;BME280;63481;52.588;22.472;2023-04-08T03:04:44;101001.28;;;-1.16;100.00
34034;BME280;63481;52.588;22.472;2023-04-08T03:05:37;101000.73;;;-1.15;100.00
34034;BME280;63481;52.588;22.472;2023-04-08T03:06:30;101000.95;;;-1.14;100.00
34034;BME280;63481;52.588;22.472;2023-04-08T03:07:23;100999.80;;;-1.12;100.00
34034;BME280;63481;52.588;22.472;2023-04-08T03:08:16;100998.86;;;-1.09;100.00
34034;BME280;63481;52.588;22.472;2023-04-08T03:09:09;101001.94;;;-1.06;100.00
34034;BME280;63481;52.588;22.472;2023-04-08T03:10:02;101001.85;;;-1.05;100.00
34034;BME280;63481;52.588;22.472;2023-04-08T03:10:55;101000.04;;;-1.06;100.00
34034;BME280;63481;52.588;22.472;2023-04-08T03:11:47;101001.27;;;-1.09;100.00
34034;BME280;63481;52.588;22.472;2023-04-08T03:12:44;101001.39;;;-1.15;100.00
34034;BME280;63481;52.588;22.472;2023-04-08T03:13:37;101002.05;;;-1.22;100.00
34034;BME280;63481;52.588;22.472;2023-04-08T03:14:29;101003.23;;;-1.28;100.00
34034;BME280;63481;52.588;22.472;2023-04-08T03:15:22;101002.83;;;-1.32;100.00
34034;BME280;63481;52.588;22.472;2023-04-08T03:16:15;101003.08;;;-1.31;100.00
34034;BME280;63481;52.588;22.472;2023-04-08T03:17:08;101002.60;;;-1.22;100.00
34034;BME280;63481;52.588;22.472;2023-04-08T03:18:01;101007.59;;;-1.18;100.00
34034;BME280;63481;52.588;22.472;2023-04-08T03:18:53;101004.60;;;-1.16;100.00
34034;BME280;63481;52.588;22.472;2023-04-08T03:19:46;101005.89;;;-1.14;100.00
34034;BME280;63481;52.588;22.472;2023-04-08T03:20:39;101009.10;;;-1.15;100.00
34034;BME280;63481;52.588;22.472;2023-04-08T03:21:32;101006.75;;;-1.19;100.00
34034;BME280;63481;52.588;22.472;2023-04-08T03:22:24;101006.94;;;-1.24;100.00
34034;BME280;63481;52.588;22.472;2023-04-08T03:23:17;101008.91;;;-1.27;100.00
34034;BME280;63481;52.588;22.472;2023-04-08T03:24:10;101006.73;;;-1.31;100.00
34034;BME280;63481;52.588;22.472;2023-04-08T03:25:02;101008.58;;;-1.34;100.00
34034;BME280;63481;52.588;22.472;2023-04-08T03:25:55;101011.37;;;-1.39;100.00
34034;BME280;63481;52.588;22.472;2023-04-08T03:26:48;101011.36;;;-1.39;100.00
34034;BME280;63481;52.588;22.472;2023-04-08T03:27:40;101013.09;;;-1.41;100.00
34034;BME280;63481;52.588;22.472;2023-04-08T03:28:33;101012.73;;;-1.44;100.00
34034;BME280;63481;52.588;22.472;2023-04-08T03:29:26;101015.19;;;-1.44;100.00
34034;BME280;63481;52.588;22.472;2023-04-08T03:30:19;101012.98;;;-1.47;100.00
34034;BME280;63481;52.588;22.472;2023-04-08T03:31:12;101012.79;;;-1.47;100.00
34034;BME280;63481;52.588;22.472;2023-04-08T03:32:04;101011.04;;;-1.47;100.00
34034;BME280;63481;52.588;22.472;2023-04-08T03:32:57;101012.38;;;-1.48;100.00
34034;BME280;63481;52.588;22.472;2023-04-08T03:33:50;101013.50;;;-1.52;100.00
34034;BME280;63481;52.588;22.472;2023-04-08T03:34:43;101014.66;;;-1.51;100.00
34034;BME280;63481;52.588;22.472;2023-04-08T03:35:36;101012.73;;;-1.46;100.00
34034;BME280;63481;52.588;22.472;2023-04-08T03:36:30;101013.88;;;-1.40;100.00
34034;BME280;63481;52.588;22.472;2023-04-08T03:37:23;101010.33;;;-1.39;100.00
34034;BME280;63481;52.588;22.472;2023-04-08T03:38:16;101011.59;;;-1.37;100.00
34034;BME280;63481;52.588;22.472;2023-04-08T03:39:08;101013.63;;;-1.39;100.00
34034;BME280;63481;52.588;22.472;2023-04-08T03:40:02;101015.02;;;-1.41;100.00
34034;BME280;63481;52.588;22.472;2023-04-08T03:40:55;101018.03;;;-1.37;100.00
34034;BME280;63481;52.588;22.472;2023-04-08T03:41:48;101018.29;;;-1.29;100.00
34034;BME280;63481;52.588;22.472;2023-04-08T03:42:41;101018.24;;;-1.29;100.00
34034;BME280;63481;52.588;22.472;2023-04-08T03:43:35;101017.83;;;-1.30;100.00
34034;BME280;63481;52.588;22.472;2023-04-08T03:44:29;101020.12;;;-1.28;100.00
34034;BME280;63481;52.588;22.472;2023-04-08T03:45:22;101022.84;;;-1.27;100.00
34034;BME280;63481;52.588;22.472;2023-04-08T03:46:15;101022.95;;;-1.28;100.00
34034;BME280;63481;52.588;22.472;2023-04-08T03:47:09;101025.40;;;-1.31;100.00
34034;BME280;63481;52.588;22.472;2023-04-08T03:48:02;101021.17;;;-1.33;100.00
34034;BME280;63481;52.588;22.472;2023-04-08T03:48:55;101024.88;;;-1.36;100.00
34034;BME280;63481;52.588;22.472;2023-04-08T03:49:48;101022.09;;;-1.38;100.00
34034;BME280;63481;52.588;22.472;2023-04-08T03:50:41;101022.73;;;-1.39;100.00
34034;BME280;63481;52.588;22.472;2023-04-08T03:51:34;101024.51;;;-1.40;100.00
34034;BME280;63481;52.588;22.472;2023-04-08T03:52:26;101022.05;;;-1.40;100.00
34034;BME280;63481;52.588;22.472;2023-04-08T03:53:19;101022.84;;;-1.36;100.00
34034;BME280;63481;52.588;22.472;2023-04-08T03:54:12;101024.61;;;-1.36;100.00
34034;BME280;63481;52.588;22.472;2023-04-08T03:55:04;101025.02;;;-1.38;100.00
34034;BME280;63481;52.588;22.472;2023-04-08T03:55:58;101028.45;;;-1.41;100.00
34034;BME280;63481;52.588;22.472;2023-04-08T03:56:51;101028.93;;;-1.43;100.00
34034;BME280;63481;52.588;22.472;2023-04-08T03:57:44;101029.51;;;-1.44;100.00
34034;BME280;63481;52.588;22.472;2023-04-08T03:58:38;101027.58;;;-1.46;100.00
34034;BME280;63481;52.588;22.472;2023-04-08T03:59:31;101027.80;;;-1.47;100.00
34034;BME280;63481;52.588;22.472;2023-04-08T04:00:26;101027.90;;;-1.50;100.00
34034;BME280;63481;52.588;22.472;2023-04-08T04:01:19;101027.48;;;-1.52;100.00
34034;BME280;63481;52.588;22.472;2023-04-08T04:02:16;101023.98;;;-1.52;100.00
34034;BME280;63481;52.588;22.472;2023-04-08T04:03:09;101027.34;;;-1.52;100.00
34034;BME280;63481;52.588;22.472;2023-04-08T04:04:05;101026.16;;;-1.51;100.00
34034;BME280;63481;52.588;22.472;2023-04-08T04:04:58;101026.77;;;-1.47;100.00
34034;BME280;63481;52.588;22.472;2023-04-08T04:05:51;101028.05;;;-1.45;100.00
34034;BME280;63481;52.588;22.472;2023-04-08T04:06:45;101027.46;;;-1.42;100.00
34034;BME280;63481;52.588;22.472;2023-04-08T04:07:38;101030.34;;;-1.41;100.00
34034;BME280;63481;52.588;22.472;2023-04-08T04:08:31;101030.12;;;-1.40;100.00
34034;BME280;63481;52.588;22.472;2023-04-08T04:09:25;101029.63;;;-1.39;100.00
34034;BME280;63481;52.588;22.472;2023-04-08T04:10:18;101029.48;;;-1.36;100.00
34034;BME280;63481;52.588;22.472;2023-04-08T04:11:11;101030.98;;;-1.38;100.00
34034;BME280;63481;52.588;22.472;2023-04-08T04:12:05;101032.12;;;-1.37;100.00
34034;BME280;63481;52.588;22.472;2023-04-08T04:12:58;101034.33;;;-1.36;100.00
34034;BME280;63481;52.588;22.472;2023-04-08T04:13:51;101031.54;;;-1.31;100.00
34034;BME280;63481;52.588;22.472;2023-04-08T04:14:45;101031.34;;;-1.31;100.00
34034;BME280;63481;52.588;22.472;2023-04-08T04:15:39;101031.88;;;-1.29;100.00
34034;BME280;63481;52.588;22.472;2023-04-08T04:16:32;101034.34;;;-1.24;100.00
34034;BME280;63481;52.588;22.472;2023-04-08T04:17:26;101036.14;;;-1.23;100.00
34034;BME280;63481;52.588;22.472;2023-04-08T04:18:19;101034.73;;;-1.20;100.00
34034;BME280;63481;52.588;22.472;2023-04-08T04:19:12;101038.41;;;-1.15;100.00
34034;BME280;63481;52.588;22.472;2023-04-08T04:20:06;101040.35;;;-1.13;100.00
34034;BME280;63481;52.588;22.472;2023-04-08T04:20:59;101037.43;;;-1.11;100.00
34034;BME280;63481;52.588;22.472;2023-04-08T04:21:53;101041.09;;;-1.07;100.00
34034;BME280;63481;52.588;22.472;2023-04-08T04:22:46;101040.92;;;-1.07;100.00
34034;BME280;63481;52.588;22.472;2023-04-08T04:23:39;101046.85;;;-1.14;100.00
34034;BME280;63481;52.588;22.472;2023-04-08T04:24:32;101043.80;;;-1.20;100.00
34034;BME280;63481;52.588;22.472;2023-04-08T04:25:26;101045.14;;;-1.27;100.00
34034;BME280;63481;52.588;22.472;2023-04-08T04:26:19;101047.42;;;-1.29;100.00
34034;BME280;63481;52.588;22.472;2023-04-08T04:27:12;101044.76;;;-1.31;100.00
34034;BME280;63481;52.588;22.472;2023-04-08T04:28:05;101043.61;;;-1.32;100.00
34034;BME280;63481;52.588;22.472;2023-04-08T04:28:57;101045.89;;;-1.32;100.00
34034;BME280;63481;52.588;22.472;2023-04-08T04:29:50;101042.78;;;-1.32;100.00
34034;BME280;63481;52.588;22.472;2023-04-08T04:30:43;101041.06;;;-1.30;100.00
34034;BME280;63481;52.588;22.472;2023-04-08T04:31:37;101041.60;;;-1.28;100.00
34034;BME280;63481;52.588;22.472;2023-04-08T04:32:30;101043.87;;;-1.26;100.00
34034;BME280;63481;52.588;22.472;2023-04-08T04:33:23;101047.01;;;-1.23;100.00
34034;BME280;63481;52.588;22.472;2023-04-08T04:34:16;101043.61;;;-1.17;100.00
34034;BME280;63481;52.588;22.472;2023-04-08T04:35:10;101046.56;;;-1.12;100.00
34034;BME280;63481;52.588;22.472;2023-04-08T04:36:03;101047.05;;;-1.05;100.00
34034;BME280;63481;52.588;22.472;2023-04-08T04:36:57;101049.50;;;-1.02;100.00
34034;BME280;63481;52.588;22.472;2023-04-08T04:37:50;101045.71;;;-0.98;100.00
34034;BME280;63481;52.588;22.472;2023-04-08T04:38:44;101051.53;;;-0.95;100.00
34034;BME280;63481;52.588;22.472;2023-04-08T04:39:38;101048.25;;;-0.88;100.00
34034;BME280;63481;52.588;22.472;2023-04-08T04:40:31;101049.52;;;-0.84;100.00
34034;BME280;63481;52.588;22.472;2023-04-08T04:41:24;101053.94;;;-0.80;100.00
34034;BME280;63481;52.588;22.472;2023-04-08T04:42:19;101051.45;;;-0.77;100.00
34034;BME280;63481;52.588;22.472;2023-04-08T04:43:11;101050.60;;;-0.75;100.00